Terminal Aerodrome Forecast
Issued by NWS Albany, NY

Home | Current Version | Previous Version | Text Only | Print | Product List | Glossary On
Versions: 1 2 3 4 5 6 7 8 9 10 11 12 13 14 15 16 17 18 19
818
FTUS41 KALY 180531
TAFGFL
TAF
KGFL 180531Z 1806/1906 21006KT P6SM BKN070 WS020/26030KT
     FM181400 20006KT P6SM SKC
     FM190000 VRB03KT P6SM SKC=

USA.gov is the U.S. government's official web portal to all federal, state and local government web resources and services.